.
WxDataArchive / Data Records for 2013-03-14
2013-03-13 March 2013 2013-03-15

Data Records for Thursday, 14 March 2013

Time	Temp	Chill	HIndex	Humid	Dewpt	 Wind 	HiWind	WindDir	Rain 	Barom 
-----	----	-----	------	-----	-----	------	------	-------	-----	----- 
00:00	24.5	24.5	24.5	64	14.1	0	2	270	0.00	30.304 
00:05	24.5	24.5	24.5	64	14.1	1	3	270	0.00	30.304 
00:10	24.5	24.5	24.5	64	14.1	0	1	270	0.00	30.304 
00:15	24.5	24.5	24.5	64	14.1	0	2	270	0.00	30.302 
00:20	24.5	24.5	24.5	64	14.1	1	3	270	0.00	30.302 
00:25	24.5	24.5	24.5	64	14.1	1	2	270	0.00	30.302 
00:30	24.5	24.5	24.5	64	14.1	0	2	270	0.00	30.302 
00:35	24.5	24.5	24.5	64	14.1	0	2	270	0.00	30.302 
00:40	24.5	24.5	24.5	63	13.7	0	1	270	0.00	30.302 
00:45	24.4	24.4	24.4	63	13.6	0	1	270	0.00	30.304 
00:50	24.4	24.4	24.4	63	13.6	0	1	270	0.00	30.304 
00:55	24.2	24.2	24.2	63	13.4	0	1	270	0.00	30.304 
01:00	24.2	24.2	24.2	63	13.4	0	1	270	0.00	30.304 
01:05	24.2	24.2	24.2	64	13.8	0	1	270	0.00	30.304 
01:10	24.1	24.1	24.1	64	13.7	0	1	270	0.00	30.304 
01:15	24.1	24.1	24.1	64	13.7	0	1	270	0.00	30.301 
01:20	23.9	23.9	23.9	64	13.5	0	2	270	0.00	30.301 
01:25	24.1	24.1	24.1	64	13.7	0	1	270	0.00	30.301 
01:30	24.1	24.1	24.1	64	13.7	0	1	270	0.00	30.302 
01:35	24.1	24.1	24.1	64	13.7	0	1	270	0.00	30.302 
01:40	24.1	24.1	24.1	63	13.4	0	1	270	0.00	30.302 
01:45	23.9	23.9	23.9	64	13.5	0	1	270	0.00	30.295 
01:50	23.8	23.8	23.8	64	13.4	0	0	---	0.00	30.295 
01:55	23.6	23.6	23.6	65	13.6	0	1	270	0.00	30.295 
02:00	23.5	23.5	23.5	65	13.5	0	0	---	0.00	30.294 
02:05	23.3	23.3	23.3	65	13.3	0	0	---	0.00	30.294 
02:10	23.2	23.2	23.2	66	13.6	0	1	270	0.00	30.294 
02:15	23.2	23.2	23.2	66	13.6	0	1	270	0.00	30.303 
02:20	23.2	23.2	23.2	66	13.6	0	0	---	0.00	30.303 
02:25	23.0	23.0	23.0	67	13.7	0	1	270	0.00	30.303 
02:30	23.0	23.0	23.0	67	13.7	0	1	270	0.00	30.305 
02:35	23.0	23.0	23.0	67	13.7	0	1	270	0.00	30.305 
02:40	23.0	23.0	23.0	67	13.7	0	1	270	0.00	30.305 
02:45	23.0	23.0	23.0	68	14.0	0	1	270	0.00	30.306 
02:50	23.0	23.0	23.0	68	14.0	0	2	270	0.00	30.306 
02:55	23.0	23.0	23.0	68	14.0	0	1	270	0.00	30.306 
03:00	22.9	22.9	22.9	68	13.9	0	2	270	0.00	30.310 
03:05	22.9	22.9	22.9	69	14.3	0	1	270	0.00	30.310 
03:10	22.9	22.9	22.9	69	14.3	0	1	270	0.00	30.310 
03:15	22.7	22.7	22.7	69	14.1	0	1	270	0.00	30.308 
03:20	22.7	22.7	22.7	69	14.1	0	1	270	0.00	30.308 
03:25	22.7	22.7	22.7	69	14.1	0	1	270	0.00	30.308 
03:30	22.7	22.7	22.7	69	14.1	0	1	270	0.00	30.314 
03:35	22.7	22.7	22.7	69	14.1	0	1	270	0.00	30.314 
03:40	22.7	22.7	22.7	69	14.1	0	2	270	0.00	30.314 
03:45	22.7	22.7	22.7	69	14.1	0	2	270	0.00	30.307 
03:50	22.7	22.7	22.7	69	14.1	0	2	270	0.00	30.307 
03:55	22.7	22.7	22.7	69	14.1	0	2	270	0.00	30.307 
04:00	22.7	22.7	22.7	69	14.1	0	1	270	0.00	30.310 
04:05	22.5	22.5	22.5	69	13.9	0	2	270	0.00	30.310 
04:10	22.5	22.5	22.5	69	13.9	0	1	270	0.00	30.310 
04:15	22.5	22.5	22.5	69	13.9	0	1	270	0.00	30.310 
04:20	22.4	22.4	22.4	69	13.8	0	1	270	0.00	30.310 
04:25	22.4	22.4	22.4	70	14.1	0	1	270	0.00	30.310 
04:30	22.4	22.4	22.4	70	14.1	0	1	270	0.00	30.308 
04:35	22.2	22.2	22.2	70	13.9	0	1	270	0.00	30.308 
04:40	22.2	22.2	22.2	71	14.3	0	1	270	0.00	30.308 
04:45	22.2	22.2	22.2	71	14.3	0	1	270	0.00	30.309 
04:50	22.2	22.2	22.2	71	14.3	0	1	270	0.00	30.309 
04:55	22.4	22.4	22.4	71	14.4	0	1	270	0.00	30.309 
05:00	22.4	22.4	22.4	71	14.4	0	2	270	0.00	30.307 
05:05	22.5	22.5	22.5	71	14.5	0	3	270	0.00	30.307 
05:10	22.5	22.5	22.5	71	14.5	0	2	270	0.00	30.307 
05:15	22.5	22.5	22.5	71	14.5	0	1	270	0.00	30.303 
05:20	22.5	22.5	22.5	71	14.5	0	3	270	0.00	30.303 
05:25	22.7	22.7	22.7	71	14.7	0	1	270	0.00	30.303 
05:30	22.7	22.7	22.7	71	14.7	0	1	270	0.00	30.295 
05:35	22.7	22.7	22.7	71	14.7	0	2	270	0.00	30.295 
05:40	22.7	22.7	22.7	71	14.7	0	2	270	0.00	30.295 
05:45	22.7	22.7	22.7	71	14.7	0	3	270	0.00	30.297 
05:50	22.9	22.9	22.9	71	14.9	0	3	270	0.00	30.297 
05:55	23.0	23.0	23.0	71	15.0	0	2	270	0.00	30.297 
06:00	23.0	23.0	23.0	71	15.0	0	2	270	0.00	30.298 
06:05	22.9	22.9	22.9	71	14.9	0	2	270	0.00	30.298 
06:10	22.9	22.9	22.9	71	14.9	0	3	270	0.00	30.298 
06:15	22.9	22.9	22.9	71	14.9	0	1	270	0.00	30.298 
06:20	22.9	22.9	22.9	72	15.2	0	1	270	0.00	30.298 
06:25	22.9	22.9	22.9	72	15.2	0	2	270	0.00	30.298 
06:30	22.9	22.9	22.9	72	15.2	0	1	270	0.00	30.298 
06:35	22.7	22.7	22.7	72	15.1	0	2	270	0.00	30.298 
06:40	22.7	22.7	22.7	72	15.1	0	1	270	0.00	30.298 
06:45	22.7	22.7	22.7	72	15.1	0	2	270	0.00	30.302 
06:50	22.7	22.7	22.7	72	15.1	0	1	270	0.00	30.302 
06:55	22.7	22.7	22.7	72	15.1	0	1	270	0.00	30.302 
07:00	22.7	22.7	22.7	73	15.4	0	2	270	0.00	30.307 
07:05	22.5	22.5	22.5	73	15.2	0	1	270	0.00	30.307 
07:10	22.5	22.5	22.5	73	15.2	0	2	270	0.00	30.307 
07:15	22.7	22.7	22.7	73	15.4	0	2	270	0.00	30.305 
07:20	22.7	22.7	22.7	73	15.4	0	2	270	0.00	30.305 
07:25	22.7	22.7	22.7	73	15.4	0	1	270	0.00	30.305 
07:30	22.7	22.7	22.7	73	15.4	0	2	248	0.00	30.306 
07:35	22.7	22.7	22.7	73	15.4	0	1	248	0.00	30.306 
07:40	22.7	22.7	22.7	73	15.4	0	2	248	0.00	30.306 
07:45	22.7	22.7	22.7	73	15.4	0	2	248	0.00	30.306 
07:50	22.5	22.5	22.5	73	15.2	0	1	248	0.00	30.306 
07:55	22.5	22.5	22.5	73	15.2	0	1	248	0.00	30.306 
08:00	22.4	22.4	22.4	73	15.1	0	1	248	0.00	30.314 
08:05	22.4	22.4	22.4	74	15.4	0	1	248	0.00	30.314 
08:10	22.4	22.4	22.4	74	15.4	0	1	248	0.00	30.314 
08:15	22.4	22.4	22.4	74	15.4	0	1	248	0.00	30.315 
08:20	22.4	22.4	22.4	74	15.4	0	1	248	0.00	30.315 
08:25	22.5	22.5	22.5	74	15.5	0	1	248	0.00	30.315 
08:30	22.9	22.9	22.9	74	15.9	0	2	248	0.00	30.319 
08:35	23.2	23.2	23.2	74	16.2	0	3	248	0.00	30.319 
08:40	23.5	23.5	23.5	73	16.1	0	2	248	0.00	30.319 
08:45	23.8	23.8	23.8	73	16.4	0	1	248	0.00	30.319 
08:50	24.1	24.1	24.1	72	16.4	1	3	248	0.00	30.319 
08:55	24.4	24.4	24.4	71	16.4	0	3	248	0.00	30.319 
09:00	24.7	24.7	24.7	71	16.7	0	2	248	0.00	30.321 
09:05	25.0	25.0	25.0	70	16.6	1	3	248	0.00	30.321 
09:10	25.1	25.1	25.1	69	16.4	1	3	248	0.00	30.321 
09:15	25.4	25.4	25.4	69	16.7	1	3	248	0.00	30.325 
09:20	25.7	25.7	25.7	68	16.6	1	4	248	0.00	30.325 
09:25	26.0	26.0	26.0	68	16.9	1	4	248	0.00	30.325 
09:30	26.3	26.3	26.3	67	16.9	1	3	248	0.00	30.329 
09:35	26.6	26.6	26.6	67	17.1	1	3	248	0.00	30.329 
09:40	26.9	26.9	26.9	66	17.1	1	3	248	0.00	30.329 
09:45	27.2	27.2	27.2	65	17.0	1	4	248	0.00	30.334 
09:50	27.5	27.5	27.5	65	17.3	1	3	248	0.00	30.334 
09:55	27.8	27.8	27.8	65	17.6	1	3	248	0.00	30.334 
10:00	28.1	28.1	28.1	65	17.9	1	2	248	0.00	30.333 
10:05	28.5	28.5	28.5	64	17.9	1	4	248	0.00	30.333 
10:10	28.8	28.8	28.8	64	18.2	1	4	248	0.00	30.333 
10:15	29.3	29.3	29.3	63	18.3	1	2	248	0.00	30.334 
10:20	29.5	29.5	29.5	64	18.8	1	2	248	0.00	30.334 
10:25	30.0	30.0	30.0	63	19.0	1	2	248	0.00	30.334 
10:30	30.3	30.3	30.3	62	18.9	1	2	248	0.00	30.333 
10:35	30.6	30.6	30.6	61	18.8	1	3	248	0.00	30.333 
10:40	31.0	31.0	31.0	61	19.1	1	2	248	0.00	30.333 
10:45	31.5	31.5	31.5	60	19.2	1	2	248	0.00	30.331 
10:50	32.1	32.1	32.1	60	19.8	1	3	248	0.00	30.331 
10:55	32.4	32.4	32.4	59	19.7	1	2	248	0.00	30.331 
11:00	32.8	32.8	32.8	59	20.1	1	4	248	0.00	30.328 
11:05	33.2	33.2	33.2	58	20.0	1	4	248	0.00	30.328 
11:10	33.4	33.4	33.4	57	19.8	1	3	248	0.00	30.328 
11:15	33.5	33.5	33.5	57	19.9	1	4	338	0.00	30.327 
11:20	33.7	33.7	33.7	56	19.7	1	3	292	0.00	30.327 
11:25	34.0	34.0	34.0	56	20.0	1	3	270	0.00	30.327 
11:30	34.3	34.3	34.3	56	20.3	1	4	270	0.00	30.320 
11:35	34.7	34.7	34.7	53	19.3	1	3	248	0.00	30.320 
11:40	35.0	35.0	35.0	55	20.5	1	2	248	0.00	30.320 
11:45	35.0	35.0	35.0	54	20.1	1	4	315	0.00	30.312 
11:50	35.2	35.2	35.2	55	20.7	1	5	315	0.00	30.312 
11:55	35.3	35.3	35.3	52	19.5	1	5	248	0.00	30.312 
12:00	35.6	35.6	35.6	52	19.7	1	3	248	0.00	30.311 
12:05	35.9	35.9	35.9	53	20.5	1	4	248	0.00	30.311 
12:10	36.0	36.0	36.0	53	20.5	1	2	248	0.00	30.311 
12:15	36.2	36.2	36.2	51	19.8	2	4	248	0.00	30.304 
12:20	36.5	36.5	36.5	51	20.1	1	3	248	0.00	30.304 
12:25	36.8	36.8	36.8	50	19.9	1	3	248	0.00	30.304 
12:30	36.9	36.9	36.9	50	20.0	1	4	248	0.00	30.298 
12:35	36.8	36.8	36.8	49	19.5	1	3	292	0.00	30.298 
12:40	36.8	36.8	36.8	50	19.9	1	4	248	0.00	30.298 
12:45	36.8	36.8	36.8	48	19.0	1	3	248	0.00	30.293 
12:50	37.0	37.0	37.0	49	19.6	1	3	248	0.00	30.293 
12:55	37.2	37.2	37.2	50	20.3	1	4	248	0.00	30.293 
13:00	37.2	37.2	37.2	46	18.3	1	3	338	0.00	30.289 
13:05	37.2	37.2	37.2	46	18.3	2	5	248	0.00	30.289 
13:10	37.3	37.3	37.3	47	18.9	1	6	338	0.00	30.289 
13:15	37.6	37.6	37.6	48	19.7	2	4	248	0.00	30.284 
13:20	37.9	37.9	37.9	45	18.5	1	4	248	0.00	30.284 
13:25	38.2	38.2	38.2	45	18.8	2	6	248	0.00	30.284 
13:30	38.3	38.3	38.3	46	19.4	2	5	248	0.00	30.279 
13:35	38.0	38.0	38.0	45	18.6	2	3	315	0.00	30.279 
13:40	38.2	38.2	38.2	42	17.2	2	5	248	0.00	30.279 
13:45	38.3	38.3	38.3	41	16.7	2	7	248	0.00	30.277 
13:50	38.2	38.2	38.2	42	17.2	1	4	338	0.00	30.277 
13:55	38.3	38.3	38.3	41	16.7	2	6	248	0.00	30.277 
14:00	38.5	38.5	38.5	40	16.3	1	4	248	0.00	30.269 
14:05	38.9	38.9	38.9	43	18.3	2	4	248	0.00	30.269 
14:10	39.2	39.2	39.2	43	18.6	1	3	248	0.00	30.269 
14:15	39.5	39.5	39.5	42	18.3	1	3	248	0.00	30.264 
14:20	39.2	39.2	39.2	43	18.6	2	3	292	0.00	30.264 
14:25	39.2	39.2	39.2	41	17.5	2	5	248	0.00	30.264 
14:30	39.2	39.2	39.2	43	18.6	1	3	248	0.00	30.259 
14:35	38.9	38.9	38.9	42	17.8	1	3	292	0.00	30.259 
14:40	39.2	39.2	39.2	41	17.5	2	9	248	0.00	30.259 
14:45	39.5	39.5	39.5	40	17.2	2	5	248	0.00	30.247 
14:50	39.6	39.6	39.6	42	18.4	1	3	248	0.00	30.247 
14:55	39.9	39.9	39.9	40	17.6	1	4	248	0.00	30.247 
15:00	39.9	39.9	39.9	41	18.1	2	4	292	0.00	30.242 
15:05	39.6	39.6	39.6	42	18.4	1	3	248	0.00	30.242 
15:10	40.2	40.2	40.2	42	19.0	1	2	248	0.00	30.242 
15:15	40.8	40.8	40.8	37	16.6	2	6	248	0.00	30.232 
15:20	40.6	40.6	40.6	38	17.0	2	4	315	0.00	30.232 
15:25	40.5	40.5	40.5	38	16.9	1	3	270	0.00	30.232 
15:30	40.5	40.5	40.5	39	17.5	1	4	270	0.00	30.228 
15:35	40.3	40.3	40.3	40	17.9	1	4	248	0.00	30.228 
15:40	40.6	40.6	40.6	41	18.8	2	5	248	0.00	30.228 
15:45	40.6	40.6	40.6	39	17.6	2	5	248	0.00	30.228 
15:50	40.9	40.9	40.9	41	19.0	2	5	248	0.00	30.228 
15:55	40.5	40.5	40.5	39	17.5	1	5	225	0.00	30.228 
16:00	39.9	39.9	39.9	38	16.4	1	3	225	0.00	30.225 
16:05	40.1	40.1	40.1	40	17.7	2	7	248	0.00	30.225 
16:10	40.3	40.3	40.3	39	17.3	1	4	248	0.00	30.225 
16:15	40.6	40.6	40.6	39	17.6	1	4	248	0.00	30.221 
16:20	41.2	41.2	41.2	39	18.1	2	5	248	0.00	30.221 
16:25	41.5	41.5	41.5	42	20.1	2	5	248	0.00	30.221 
16:30	41.5	41.5	41.5	40	19.0	2	4	248	0.00	30.215 
16:35	41.6	41.6	41.6	41	19.7	2	4	248	0.00	30.215 
16:40	41.3	41.3	41.3	40	18.8	2	6	270	0.00	30.215 
16:45	41.1	41.1	41.1	40	18.6	2	4	270	0.00	30.215 
16:50	41.5	41.5	41.5	39	18.4	1	5	248	0.00	30.215 
16:55	41.2	41.2	41.2	40	18.7	2	4	248	0.00	30.215 
17:00	41.1	41.1	41.1	39	18.1	2	5	248	0.00	30.216 
17:05	40.9	40.9	40.9	39	17.9	1	4	248	0.00	30.216 
17:10	40.3	40.3	40.3	39	17.3	2	5	248	0.00	30.216 
17:15	40.3	40.3	40.3	42	19.1	1	3	248	0.00	30.213 
17:20	40.6	40.6	40.6	39	17.6	1	4	248	0.00	30.213 
17:25	40.8	40.8	40.8	40	18.4	1	4	248	0.00	30.213 
17:30	40.9	40.9	40.9	40	18.5	2	6	248	0.00	30.209 
17:35	40.8	40.8	40.8	40	18.4	1	4	248	0.00	30.209 
17:40	40.5	40.5	40.5	40	18.1	1	4	248	0.00	30.209 
17:45	40.2	40.2	40.2	41	18.4	1	5	248	0.00	30.202 
17:50	40.1	40.1	40.1	42	18.9	1	5	248	0.00	30.202 
17:55	39.9	39.9	39.9	43	19.2	1	4	248	0.00	30.202 
18:00	39.8	39.8	39.8	43	19.1	1	4	248	0.00	30.198 
18:05	39.8	39.8	39.8	44	19.7	0	2	248	0.00	30.198 
18:10	39.8	39.8	39.8	44	19.7	0	2	248	0.00	30.198 
18:15	39.6	39.6	39.6	43	19.0	0	2	248	0.00	30.191 
18:20	39.5	39.5	39.5	44	19.4	1	5	248	0.00	30.191 
18:25	39.5	39.5	39.5	46	20.5	1	3	248	0.00	30.191 
18:30	39.3	39.3	39.3	44	19.2	1	4	248	0.00	30.188 
18:35	39.3	39.3	39.3	45	19.8	0	3	248	0.00	30.188 
18:40	39.3	39.3	39.3	46	20.3	1	4	248	0.00	30.188 
18:45	39.3	39.3	39.3	47	20.8	0	2	248	0.00	30.190 
18:50	39.3	39.3	39.3	46	20.3	1	4	248	0.00	30.190 
18:55	39.3	39.3	39.3	48	21.3	0	2	248	0.00	30.190 
19:00	39.2	39.2	39.2	48	21.2	1	4	248	0.00	30.185 
19:05	39.2	39.2	39.2	49	21.7	1	4	248	0.00	30.185 
19:10	39.2	39.2	39.2	49	21.7	1	3	248	0.00	30.185 
19:15	39.1	39.1	39.1	50	22.0	1	4	248	0.00	30.195 
19:20	38.8	38.8	38.8	49	21.3	1	3	248	0.00	30.195 
19:25	38.6	38.6	38.6	50	21.6	1	3	248	0.00	30.195 
19:30	38.3	38.3	38.3	50	21.3	1	2	248	0.00	30.192 
19:35	38.0	38.0	38.0	50	21.0	0	2	248	0.00	30.192 
19:40	37.8	37.8	37.8	51	21.3	0	1	248	0.00	30.192 
19:45	37.5	37.5	37.5	52	21.5	0	2	248	0.00	30.186 
19:50	37.2	37.2	37.2	52	21.2	1	3	248	0.00	30.186 
19:55	37.2	37.2	37.2	50	20.3	1	3	248	0.00	30.186 
20:00	37.0	37.0	37.0	51	20.6	0	2	248	0.00	30.203 
20:05	36.9	36.9	36.9	51	20.5	0	2	248	0.00	30.203 
20:10	36.6	36.6	36.6	52	20.7	0	1	248	0.00	30.203 
20:15	36.5	36.5	36.5	52	20.6	0	2	248	0.00	30.204 
20:20	36.3	36.3	36.3	53	20.8	0	1	248	0.00	30.204 
20:25	36.2	36.2	36.2	53	20.7	0	3	248	0.00	30.204 
20:30	36.0	36.0	36.0	54	21.0	0	2	248	0.00	30.210 
20:35	35.9	35.9	35.9	55	21.3	0	2	248	0.00	30.210 
20:40	35.8	35.8	35.8	56	21.7	0	1	248	0.00	30.210 
20:45	35.8	35.8	35.8	56	21.7	0	2	248	0.00	30.190 
20:50	35.6	35.6	35.6	55	21.0	0	1	248	0.00	30.190 
20:55	35.5	35.5	35.5	56	21.4	0	1	248	0.00	30.190 
21:00	35.3	35.3	35.3	55	20.8	0	3	248	0.00	30.184 
21:05	35.3	35.3	35.3	54	20.3	0	2	248	0.00	30.184 
21:10	35.2	35.2	35.2	54	20.2	0	2	248	0.00	30.184 
21:15	35.0	35.0	35.0	53	19.6	0	1	248	0.00	30.183 
21:20	35.0	35.0	35.0	53	19.6	0	1	248	0.00	30.183 
21:25	34.9	34.9	34.9	54	20.0	0	1	248	0.00	30.183 
21:30	34.6	34.6	34.6	55	20.1	0	1	248	0.00	30.181 
21:35	34.4	34.4	34.4	55	19.9	0	1	248	0.00	30.181 
21:40	34.3	34.3	34.3	55	19.8	0	1	248	0.00	30.181 
21:45	34.3	34.3	34.3	55	19.8	0	2	248	0.00	30.167 
21:50	34.3	34.3	34.3	55	19.8	0	2	248	0.00	30.167 
21:55	34.3	34.3	34.3	56	20.3	0	3	248	0.00	30.167 
22:00	34.3	34.3	34.3	56	20.3	0	1	248	0.00	30.159 
22:05	34.1	34.1	34.1	56	20.1	0	1	248	0.00	30.159 
22:10	34.0	34.0	34.0	57	20.4	0	3	248	0.00	30.159 
22:15	33.8	33.8	33.8	57	20.2	0	1	248	0.00	30.142 
22:20	33.7	33.7	33.7	58	20.5	0	2	248	0.00	30.142 
22:25	33.5	33.5	33.5	58	20.3	0	1	248	0.00	30.142 
22:30	33.5	33.5	33.5	59	20.7	0	3	248	0.00	30.146 
22:35	33.5	33.5	33.5	59	20.7	0	1	248	0.00	30.146 
22:40	33.4	33.4	33.4	60	21.0	0	1	248	0.00	30.146 
22:45	33.2	33.2	33.2	60	20.8	0	1	248	0.00	30.149 
22:50	33.1	33.1	33.1	61	21.1	0	1	248	0.00	30.149 
22:55	32.9	32.9	32.9	61	20.9	0	1	248	0.00	30.149 
23:00	32.8	32.8	32.8	62	21.2	0	1	248	0.00	30.144 
23:05	32.7	32.7	32.7	62	21.1	0	1	248	0.00	30.144 
23:10	32.7	32.7	32.7	62	21.1	0	1	248	0.00	30.144 
23:15	32.8	32.8	32.8	62	21.2	0	1	248	0.00	30.145 
23:20	32.9	32.9	32.9	62	21.3	0	2	248	0.00	30.145 
23:25	33.1	33.1	33.1	62	21.5	0	2	248	0.00	30.145 
23:30	33.1	33.1	33.1	62	21.5	0	1	248	0.00	30.141 
23:35	33.1	33.1	33.1	62	21.5	0	1	248	0.00	30.141 
23:40	33.1	33.1	33.1	61	21.1	0	1	248	0.00	30.141 
23:45	33.1	33.1	33.1	61	21.1	0	1	248	0.00	30.145 
23:50	33.1	33.1	33.1	61	21.1	0	1	248	0.00	30.145 
23:55	32.9	32.9	32.9	61	20.9	0	1	248	0.00	30.145 

CoCoRaHS
IN-AL-39
A2 Web Hosting
Creative Commons License
GoDaddy
search engine by freefind advanced

loaded 2018-11-22 06:04:14 • last modified 2010-11-18 10:43:29
Privacy PolicyDisclaimer
• wx.awcolley.com is powered by PmWiki v.2002016 •
• all content (unless otherwise noted) © 2018 A W Colley